createdAt,value
2022-08-07T00:00:15.089Z,94556.70
2022-08-07T00:02:45.650Z,94557.37
2022-08-07T00:05:12.908Z,94556.13
2022-08-07T00:07:41.176Z,94558.21
2022-08-07T00:10:26.108Z,94555.20
2022-08-07T00:12:57.935Z,94552.68
2022-08-07T00:15:38.028Z,94551.77
2022-08-07T00:18:18.895Z,94553.26
2022-08-07T00:20:47.766Z,94552.41
2022-08-07T00:23:15.160Z,94549.64
2022-08-07T00:25:45.950Z,94554.64
2022-08-07T00:28:26.013Z,94550.46
2022-08-07T00:31:05.897Z,94555.41
2022-08-07T00:33:34.976Z,94552.40
2022-08-07T00:36:02.673Z,94556.80
2022-08-07T00:38:31.064Z,94554.88
2022-08-07T00:41:00.490Z,94551.66
2022-08-07T00:44:01.274Z,94553.27
2022-08-07T00:46:14.564Z,94551.52
2022-08-07T00:48:42.349Z,94552.48
2022-08-07T00:51:10.573Z,94554.40
2022-08-07T00:53:39.367Z,94556.50
2022-08-07T00:56:18.800Z,94563.06
2022-08-07T00:58:47.459Z,94566.75
2022-08-07T01:01:18.762Z,94562.91
2022-08-07T01:03:56.411Z,94561.70
2022-08-07T01:06:31.757Z,94556.42
2022-08-07T01:09:01.008Z,94558.38
2022-08-07T01:12:23.439Z,94559.02
2022-08-07T01:14:21.475Z,94556.33
2022-08-07T01:16:56.229Z,94557.73
2022-08-07T01:19:25.605Z,94557.27
2022-08-07T01:21:55.128Z,94560.19
2022-08-07T01:24:23.008Z,94556.11
2022-08-07T01:26:52.617Z,94555.14
2022-08-07T01:29:27.932Z,94548.54
2022-08-07T01:31:55.646Z,94556.20
2022-08-07T01:34:30.820Z,94550.10
2022-08-07T01:36:59.184Z,94548.42
2022-08-07T01:39:40.687Z,94547.07
2022-08-07T01:42:37.910Z,94556.89
2022-08-07T01:45:04.505Z,94554.43
2022-08-07T01:48:17.909Z,94556.85
2022-08-07T01:50:28.507Z,94556.70
2022-08-07T01:52:58.443Z,94553.67
2022-08-07T01:55:55.643Z,94552.16
2022-08-07T01:58:29.654Z,94548.60
2022-08-07T02:01:10.147Z,94550.10
2022-08-07T02:03:58.504Z,94548.63
2022-08-07T02:06:31.918Z,94547.89
2022-08-07T02:09:03.801Z,94547.48
2022-08-07T02:12:03.527Z,94548.79
2022-08-07T02:14:40.542Z,94546.63
2022-08-07T02:17:11.225Z,94547.88
2022-08-07T02:20:07.444Z,94550.01
2022-08-07T02:22:31.785Z,94547.58
2022-08-07T02:24:59.771Z,94555.13
2022-08-07T02:27:34.809Z,94560.30
2022-08-07T02:30:04.038Z,94555.67
2022-08-07T02:32:42.643Z,94550.14
2022-08-07T02:36:29.456Z,94548.08
2022-08-07T02:38:17.626Z,94544.90
2022-08-07T02:40:55.520Z,94549.69
2022-08-07T02:43:23.345Z,94549.48
2022-08-07T02:45:58.193Z,94554.31
2022-08-07T02:48:26.501Z,94557.59
2022-08-07T02:50:56.461Z,94556.06
2022-08-07T02:53:31.387Z,94555.32
2022-08-07T02:56:17.338Z,94561.65
2022-08-07T02:58:47.209Z,94562.15
2022-08-07T03:01:18.587Z,94557.42
2022-08-07T03:03:49.965Z,94562.70
2022-08-07T03:06:26.072Z,94566.27
2022-08-07T03:09:11.285Z,94563.91
2022-08-07T03:11:52.705Z,94566.42
2022-08-07T03:14:27.725Z,94566.77
2022-08-07T03:16:56.713Z,94573.11
2022-08-07T03:19:24.879Z,94571.30
2022-08-07T03:21:57.007Z,94574.45
2022-08-07T03:24:27.729Z,94571.64
2022-08-07T03:27:00.360Z,94569.83
2022-08-07T03:29:37.784Z,94572.34
2022-08-07T03:32:13.149Z,94577.42
2022-08-07T03:34:47.413Z,94580.49
2022-08-07T03:37:32.798Z,94578.63
2022-08-07T03:40:15.829Z,94577.06
2022-08-07T03:42:43.895Z,94583.25
2022-08-07T03:45:12.213Z,94583.29
2022-08-07T03:47:58.476Z,94582.53
2022-08-07T03:50:28.539Z,94582.96
2022-08-07T03:52:59.531Z,94587.53
2022-08-07T03:55:52.933Z,94589.98
2022-08-07T03:59:05.349Z,94591.88
2022-08-07T04:01:07.489Z,94592.77
2022-08-07T04:03:49.855Z,94594.65
2022-08-07T04:06:37.082Z,94590.94
2022-08-07T04:09:08.428Z,94585.19
2022-08-07T04:12:23.804Z,94585.74
2022-08-07T04:14:38.441Z,94588.46
2022-08-07T04:17:19.890Z,94588.38
2022-08-07T04:19:58.772Z,94598.94
2022-08-07T04:22:28.905Z,94602.45
2022-08-07T04:24:58.676Z,94601.11
2022-08-07T04:27:28.364Z,94601.32
2022-08-07T04:30:03.266Z,94599.11
2022-08-07T04:32:35.193Z,94601.72
2022-08-07T04:35:05.604Z,94603.98
2022-08-07T04:37:52.792Z,94607.58
2022-08-07T04:40:22.810Z,94609.88
2022-08-07T04:43:01.577Z,94608.63
2022-08-07T04:46:01.113Z,94608.63
2022-08-07T04:49:14.880Z,94607.54
2022-08-07T04:51:58.822Z,94615.32
2022-08-07T04:55:15.229Z,94619.91
2022-08-07T04:58:24.121Z,94620.70
2022-08-07T05:00:56.090Z,94624.41
2022-08-07T05:03:59.843Z,94629.14
2022-08-07T05:06:57.733Z,94636.55
2022-08-07T05:10:11.083Z,94634.59
2022-08-07T05:12:52.800Z,94636.51
2022-08-07T05:15:36.122Z,94638.70
2022-08-07T05:18:10.408Z,94640.57
2022-08-07T05:20:43.856Z,94639.52
2022-08-07T05:23:16.691Z,94641.31
2022-08-07T05:26:11.551Z,94642.94
2022-08-07T05:28:35.014Z,94645.93
2022-08-07T05:31:03.916Z,94641.98
2022-08-07T05:33:35.441Z,94640.60
2022-08-07T05:36:07.318Z,94641.08
2022-08-07T05:38:58.189Z,94645.79
2022-08-07T05:42:00.489Z,94651.05
2022-08-07T05:44:17.930Z,94652.67
2022-08-07T05:46:57.967Z,94656.36
2022-08-07T05:49:27.411Z,94661.10
2022-08-07T05:52:11.411Z,94665.73
2022-08-07T05:54:53.890Z,94668.16
2022-08-07T05:57:26.793Z,94674.86
2022-08-07T05:59:59.413Z,94686.34
2022-08-07T06:02:30.717Z,94692.84
2022-08-07T06:05:10.746Z,94692.55
2022-08-07T06:08:13.237Z,94692.85
2022-08-07T06:10:26.608Z,94693.36
2022-08-07T06:12:53.947Z,94695.79
2022-08-07T06:15:22.758Z,94698.77
2022-08-07T06:18:14.356Z,94704.27
2022-08-07T06:20:49.671Z,94704.33
2022-08-07T06:24:37.300Z,94705.20
2022-08-07T06:26:17.527Z,94703.44
2022-08-07T06:28:57.609Z,94704.70
2022-08-07T06:31:47.251Z,94703.14
2022-08-07T06:34:14.046Z,94708.35
2022-08-07T06:36:41.980Z,94701.84
2022-08-07T06:40:16.390Z,94700.09
2022-08-07T06:42:03.676Z,94702.89
2022-08-07T06:44:34.103Z,94702.19
2022-08-07T06:47:10.325Z,94698.16
2022-08-07T06:49:51.229Z,94700.48
2022-08-07T06:52:37.414Z,94700.80
2022-08-07T06:55:31.349Z,94696.61
2022-08-07T06:58:04.331Z,94701.31
2022-08-07T07:00:42.310Z,94695.78
2022-08-07T07:03:13.779Z,94695.83
2022-08-07T07:06:02.840Z,94696.59
2022-08-07T07:08:33.521Z,94693.97
2022-08-07T07:11:13.143Z,94691.95
2022-08-07T07:13:57.808Z,94693.57
2022-08-07T07:16:45.195Z,94696.09
2022-08-07T07:19:57.375Z,94696.09
2022-08-07T07:22:34.184Z,94697.15
2022-08-07T07:25:13.854Z,94702.49
2022-08-07T07:28:03.387Z,94704.80
2022-08-07T07:30:40.155Z,94707.08
2022-08-07T07:33:11.370Z,94711.02
2022-08-07T07:35:44.044Z,94707.73
2022-08-07T07:38:32.626Z,94706.27
2022-08-07T07:41:08.862Z,94709.84
2022-08-07T07:44:14.805Z,94713.28
2022-08-07T07:46:54.235Z,94717.06
2022-08-07T07:50:29.663Z,94723.18
2022-08-07T07:52:13.763Z,94727.95
2022-08-07T07:54:50.441Z,94736.08
2022-08-07T07:57:43.555Z,94735.88
2022-08-07T08:00:09.923Z,94735.11
2022-08-07T08:03:01.230Z,94739.14
2022-08-07T08:05:42.624Z,94736.14
2022-08-07T08:08:33.775Z,94733.08
2022-08-07T08:11:08.988Z,94734.38
2022-08-07T08:13:54.006Z,94735.24
2022-08-07T08:16:26.645Z,94741.08
2022-08-07T08:18:58.412Z,94742.19
2022-08-07T08:21:55.743Z,94743.08
2022-08-07T08:25:04.866Z,94745.70
2022-08-07T08:27:55.959Z,94742.09
2022-08-07T08:30:28.241Z,94741.41
2022-08-07T08:32:59.486Z,94749.79
2022-08-07T08:35:28.567Z,94748.13
2022-08-07T08:38:03.578Z,94748.83
2022-08-07T08:40:41.008Z,94752.29
2022-08-07T08:43:42.074Z,94751.02
2022-08-07T08:46:32.406Z,94754.73
2022-08-07T08:49:13.314Z,94752.55
2022-08-07T08:52:21.963Z,94752.86
2022-08-07T08:55:20.986Z,94751.33
2022-08-07T08:58:02.213Z,94753.79
2022-08-07T09:00:36.815Z,94755.54
2022-08-07T09:03:21.905Z,94755.14
2022-08-07T09:06:18.290Z,94757.30
2022-08-07T09:09:09.601Z,94757.37
2022-08-07T09:12:30.215Z,94757.95
2022-08-07T09:16:22.203Z,94754.67
2022-08-07T09:18:39.383Z,94761.54
2022-08-07T09:21:34.395Z,94755.58
2022-08-07T09:24:59.451Z,94756.08
2022-08-07T09:28:00.148Z,94757.39
2022-08-07T09:31:00.376Z,94753.64
2022-08-07T09:34:08.102Z,94746.77
2022-08-07T09:36:42.947Z,94744.23
2022-08-07T09:39:53.070Z,94739.40
2022-08-07T09:42:22.975Z,94738.73
2022-08-07T09:47:23.903Z,94741.30
2022-08-07T09:50:04.070Z,94742.62
2022-08-07T09:52:33.634Z,94741.89
2022-08-07T09:55:28.790Z,94749.23
2022-08-07T09:58:32.151Z,94743.40
2022-08-07T10:01:51.881Z,94741.02
2022-08-07T10:05:12.550Z,94739.58
2022-08-07T10:07:59.630Z,94738.27
2022-08-07T10:11:59.437Z,94738.52
2022-08-07T10:14:00.664Z,94736.83
2022-08-07T10:16:35.385Z,94736.65
2022-08-07T10:19:30.165Z,94733.64
2022-08-07T10:22:24.843Z,94729.87
2022-08-07T10:25:24.304Z,94730.95
2022-08-07T10:28:49.958Z,94725.66
2022-08-07T10:31:54.722Z,94729.84
2022-08-07T10:35:16.489Z,94725.48
2022-08-07T10:38:47.884Z,94723.80
2022-08-07T10:41:57.742Z,94726.27
2022-08-07T10:44:50.203Z,94725.09
2022-08-07T10:47:27.183Z,94732.30
2022-08-07T10:50:34.861Z,94732.30
2022-08-07T10:53:11.568Z,94731.54
2022-08-07T10:55:47.803Z,94732.70
2022-08-07T10:58:36.755Z,94730.71
2022-08-07T11:01:35.477Z,94735.40
2022-08-07T11:04:41.125Z,94738.45
2022-08-07T11:07:56.901Z,94740.16
2022-08-07T11:10:16.412Z,94739.21
2022-08-07T11:14:42.273Z,94740.63
2022-08-07T11:16:30.523Z,94738.02
2022-08-07T11:19:10.121Z,94737.96
2022-08-07T11:21:42.850Z,94744.30
2022-08-07T11:24:39.716Z,94741.33
2022-08-07T11:28:00.945Z,94738.15
2022-08-07T11:30:29.087Z,94736.52
2022-08-07T11:33:15.027Z,94732.83
2022-08-07T11:36:10.140Z,94724.59
2022-08-07T11:38:54.073Z,94720.28
2022-08-07T11:42:01.747Z,94719.11
2022-08-07T11:44:52.515Z,94713.52
2022-08-07T11:47:39.216Z,94713.63
2022-08-07T11:50:35.307Z,94709.55
2022-08-07T11:53:16.458Z,94712.31
2022-08-07T11:56:25.604Z,94713.20
2022-08-07T11:58:54.459Z,94712.09
2022-08-07T12:02:00.035Z,94709.00
2022-08-07T12:04:54.500Z,94709.80
2022-08-07T12:07:39.010Z,94706.10
2022-08-07T12:10:23.751Z,94703.93
2022-08-07T12:13:03.204Z,94702.97
2022-08-07T12:16:05.328Z,94696.23
2022-08-07T12:18:38.330Z,94692.52
2022-08-07T12:21:21.031Z,94690.88
2022-08-07T12:24:37.258Z,94692.29
2022-08-07T12:27:17.221Z,94685.15
2022-08-07T12:29:52.566Z,94676.90
2022-08-07T12:32:51.203Z,94675.75
2022-08-07T12:35:19.937Z,94667.92
2022-08-07T12:38:10.732Z,94674.39
2022-08-07T12:40:47.195Z,94669.02
2022-08-07T12:44:04.552Z,94662.80
2022-08-07T12:46:26.488Z,94654.02
2022-08-07T12:49:39.927Z,94655.41
2022-08-07T12:52:12.379Z,94656.45
2022-08-07T12:54:59.020Z,94650.54
2022-08-07T12:57:39.088Z,94645.61
2022-08-07T13:00:34.588Z,94649.15
2022-08-07T13:03:56.321Z,94645.69
2022-08-07T13:06:22.029Z,94640.29
2022-08-07T13:10:19.561Z,94631.11
2022-08-07T13:12:15.209Z,94629.53
2022-08-07T13:15:14.472Z,94619.83
2022-08-07T13:17:59.439Z,94617.30
2022-08-07T13:20:41.100Z,94619.59
2022-08-07T13:24:00.738Z,94619.04
2022-08-07T13:26:18.276Z,94616.54
2022-08-07T13:28:59.059Z,94609.64
2022-08-07T13:31:55.242Z,94609.89
2022-08-07T13:34:35.842Z,94608.48
2022-08-07T13:37:32.326Z,94615.27
2022-08-07T13:40:34.945Z,94615.09
2022-08-07T13:43:13.399Z,94609.95
2022-08-07T13:46:20.837Z,94606.69
2022-08-07T13:48:38.682Z,94605.04
2022-08-07T13:51:27.569Z,94600.88
2022-08-07T13:54:03.763Z,94606.59
2022-08-07T13:56:36.084Z,94607.66
2022-08-07T13:59:13.226Z,94599.02
2022-08-07T14:02:03.606Z,94597.98
2022-08-07T14:04:35.804Z,94592.92
2022-08-07T14:07:09.672Z,94593.62
2022-08-07T14:10:00.864Z,94595.58
2022-08-07T14:12:54.547Z,94596.27
2022-08-07T14:15:35.986Z,94593.66
2022-08-07T14:18:23.841Z,94586.73
2022-08-07T14:21:21.034Z,94580.90
2022-08-07T14:24:08.580Z,94575.00
2022-08-07T14:26:50.989Z,94576.86
2022-08-07T14:30:07.596Z,94574.71
2022-08-07T14:32:15.259Z,94572.31
2022-08-07T14:34:47.498Z,94568.91
2022-08-07T14:37:32.937Z,94564.46
2022-08-07T14:40:18.193Z,94559.25
2022-08-07T14:46:06.212Z,94566.65
2022-08-07T14:48:35.325Z,94561.58
2022-08-07T14:56:51.659Z,94553.84
2022-08-07T15:02:31.739Z,94566.95
2022-08-07T15:05:20.519Z,94557.98
2022-08-07T15:07:53.453Z,94553.89
2022-08-07T15:10:25.957Z,94550.80
2022-08-07T15:12:58.342Z,94544.14
2022-08-07T15:15:38.562Z,94547.25
2022-08-07T15:18:14.444Z,94545.14
2022-08-07T15:25:02.393Z,94552.74
2022-08-07T15:26:55.719Z,94551.20
2022-08-07T15:30:04.795Z,94553.80
2022-08-07T15:32:14.097Z,94561.09
2022-08-07T15:34:50.235Z,94554.45
2022-08-07T15:40:33.922Z,94564.00
2022-08-07T15:46:31.805Z,94559.46
2022-08-07T15:49:14.424Z,94560.17
2022-08-07T15:54:34.250Z,94560.24
2022-08-07T15:57:04.761Z,94557.46
2022-08-07T15:59:39.982Z,94557.67
2022-08-07T16:02:23.957Z,94558.14
2022-08-07T16:04:57.989Z,94557.02
2022-08-07T16:08:28.270Z,94559.38
2022-08-07T16:10:25.382Z,94560.44
2022-08-07T16:13:17.507Z,94559.55
2022-08-07T16:16:47.769Z,94561.67
2022-08-07T16:18:56.697Z,94569.27
2022-08-07T16:21:57.009Z,94571.28
2022-08-07T16:24:52.513Z,94569.23
2022-08-07T16:27:20.927Z,94574.93
2022-08-07T16:30:10.784Z,94573.19
2022-08-07T16:32:58.536Z,94572.78
2022-08-07T16:35:58.450Z,94580.79
2022-08-07T16:39:00.858Z,94582.44
2022-08-07T16:41:41.619Z,94589.20
2022-08-07T16:45:14.319Z,94589.92
2022-08-07T16:48:07.105Z,94591.82
2022-08-07T16:51:20.523Z,94598.92
2022-08-07T16:54:06.348Z,94597.45
2022-08-07T16:56:54.051Z,94602.30
2022-08-07T16:59:49.690Z,94604.02
2022-08-07T17:02:53.372Z,94605.29
2022-08-07T17:06:19.413Z,94610.87
2022-08-07T17:09:10.325Z,94608.48
2022-08-07T17:12:04.214Z,94609.23
2022-08-07T17:15:09.239Z,94613.29
2022-08-07T17:18:16.046Z,94613.41
2022-08-07T17:20:46.443Z,94612.64
2022-08-07T17:23:22.805Z,94616.30
2022-08-07T17:26:02.223Z,94626.18
2022-08-07T17:28:49.923Z,94629.27
2022-08-07T17:32:02.920Z,94638.73
2022-08-07T17:35:40.675Z,94648.45
2022-08-07T17:38:05.419Z,94656.21
2022-08-07T17:40:35.951Z,94665.95
2022-08-07T17:43:14.938Z,94669.80
2022-08-07T17:45:57.270Z,94679.05
2022-08-07T17:48:31.132Z,94683.80
2022-08-07T17:51:07.429Z,94692.64
2022-08-07T17:54:02.236Z,94686.60
2022-08-07T17:56:36.209Z,94685.38
2022-08-07T17:59:41.475Z,94694.27
2022-08-07T18:02:17.538Z,94693.40
2022-08-07T18:05:22.024Z,94698.91
2022-08-07T18:08:00.547Z,94705.65
2022-08-07T18:12:06.990Z,94704.66
2022-08-07T18:13:48.993Z,94717.64
2022-08-07T18:16:35.736Z,94729.33
2022-08-07T18:21:07.960Z,94735.83
2022-08-07T18:22:40.300Z,94741.24
2022-08-07T18:25:24.070Z,94747.51
2022-08-07T18:28:34.499Z,94749.64
2022-08-07T18:31:24.471Z,94758.32
2022-08-07T18:34:33.815Z,94765.52
2022-08-07T18:38:56.458Z,94776.80
2022-08-07T18:40:53.622Z,94791.02
2022-08-07T18:43:48.874Z,94791.91
2022-08-07T18:46:54.896Z,94796.80
2022-08-07T18:50:30.075Z,94797.95
2022-08-07T18:53:04.591Z,94804.57
2022-08-07T18:56:04.173Z,94811.72
2022-08-07T18:59:00.901Z,94814.03
2022-08-07T19:02:27.320Z,94830.41
2022-08-07T19:05:10.791Z,94832.79
2022-08-07T19:07:58.847Z,94829.61
2022-08-07T19:10:31.938Z,94825.16
2022-08-07T19:13:43.837Z,94827.72
2022-08-07T19:16:43.129Z,94830.02
2022-08-07T19:19:47.002Z,94822.90
2022-08-07T19:22:44.995Z,94819.23
2022-08-07T19:26:23.038Z,94818.85
2022-08-07T19:28:56.385Z,94822.86
2022-08-07T19:31:41.454Z,94826.51
2022-08-07T19:34:03.073Z,94825.13
2022-08-07T19:36:35.479Z,94826.83
2022-08-07T19:39:09.082Z,94825.55
2022-08-07T19:42:07.900Z,94825.00
2022-08-07T19:44:44.147Z,94829.34
2022-08-07T19:47:16.314Z,94830.06
2022-08-07T19:49:57.074Z,94829.84
2022-08-07T19:52:28.129Z,94827.45
2022-08-07T19:54:57.474Z,94826.02
2022-08-07T19:58:02.713Z,94825.77
2022-08-07T20:00:34.648Z,94822.52
2022-08-07T20:03:32.739Z,94817.02
2022-08-07T20:06:02.223Z,94813.35
2022-08-07T20:08:34.796Z,94805.56
2022-08-07T20:11:10.086Z,94801.77
2022-08-07T20:13:55.260Z,94806.16
2022-08-07T20:16:34.967Z,94805.16
2022-08-07T20:19:10.251Z,94803.00
2022-08-07T20:21:47.141Z,94799.58
2022-08-07T20:24:23.191Z,94794.53
2022-08-07T20:26:54.587Z,94794.10
2022-08-07T20:29:47.873Z,94795.95
2022-08-07T20:32:40.191Z,94795.11
2022-08-07T20:35:26.131Z,94794.91
2022-08-07T20:37:58.699Z,94797.90
2022-08-07T20:40:34.685Z,94802.90
2022-08-07T20:43:09.410Z,94808.54
2022-08-07T20:46:25.833Z,94810.45
2022-08-07T20:48:34.016Z,94809.94
2022-08-07T20:51:09.666Z,94819.80
2022-08-07T20:54:03.403Z,94820.63
2022-08-07T20:56:32.343Z,94824.21
2022-08-07T20:59:05.132Z,94829.63
2022-08-07T21:01:45.936Z,94824.63
2022-08-07T21:04:27.029Z,94827.20
2022-08-07T21:07:04.048Z,94826.25
2022-08-07T21:09:51.716Z,94823.52
2022-08-07T21:12:31.202Z,94824.66
2022-08-07T21:15:03.994Z,94822.71
2022-08-07T21:18:03.076Z,94819.41
2022-08-07T21:20:29.647Z,94821.94
2022-08-07T21:23:08.096Z,94820.65
2022-08-07T21:25:38.599Z,94821.31
2022-08-07T21:28:11.186Z,94827.67
2022-08-07T21:31:02.452Z,94829.99
2022-08-07T21:33:48.473Z,94829.25
2022-08-07T21:36:31.089Z,94826.70
2022-08-07T21:39:45.251Z,94821.63
2022-08-07T21:42:46.232Z,94828.27
2022-08-07T21:46:08.451Z,94824.15
2022-08-07T21:48:32.190Z,94823.52
2022-08-07T21:51:32.329Z,94821.73
2022-08-07T21:54:46.045Z,94821.64
2022-08-07T21:57:44.926Z,94818.20
2022-08-07T22:00:25.299Z,94822.77
2022-08-07T22:03:18.851Z,94826.16
2022-08-07T22:06:30.060Z,94823.07
2022-08-07T22:09:07.018Z,94825.55
2022-08-07T22:12:05.896Z,94822.55
2022-08-07T22:14:36.304Z,94821.50
2022-08-07T22:17:05.086Z,94821.04
2022-08-07T22:19:44.780Z,94823.20
2022-08-07T22:22:27.439Z,94821.90
2022-08-07T22:24:55.431Z,94823.25
2022-08-07T22:28:03.131Z,94820.38
2022-08-07T22:30:32.290Z,94819.92
2022-08-07T22:33:04.543Z,94820.21
2022-08-07T22:35:52.044Z,94822.39
2022-08-07T22:38:31.899Z,94818.75
2022-08-07T22:41:03.295Z,94820.81
2022-08-07T22:43:34.254Z,94824.71
2022-08-07T22:46:43.005Z,94822.19
2022-08-07T22:49:54.197Z,94823.90
2022-08-07T22:52:39.611Z,94825.27
2022-08-07T22:55:30.009Z,94824.99
2022-08-07T22:58:31.484Z,94823.54
2022-08-07T23:01:25.337Z,94829.77
2022-08-07T23:04:04.946Z,94823.91
2022-08-07T23:06:41.612Z,94820.58
2022-08-07T23:10:06.383Z,94823.35
2022-08-07T23:12:58.717Z,94831.20
2022-08-07T23:16:05.696Z,94826.96
2022-08-07T23:18:42.442Z,94826.05
2022-08-07T23:21:36.736Z,94823.89
2022-08-07T23:24:11.368Z,94824.55
2022-08-07T23:26:59.200Z,94818.29
2022-08-07T23:30:37.138Z,94816.63
2022-08-07T23:34:34.244Z,94810.48
2022-08-07T23:36:03.596Z,94813.92
2022-08-07T23:38:54.935Z,94814.63
2022-08-07T23:42:30.464Z,94812.92
2022-08-07T23:45:33.466Z,94820.35
2022-08-07T23:48:31.596Z,94816.02
2022-08-07T23:53:01.140Z,94813.95
2022-08-07T23:54:57.044Z,94816.79
2022-08-07T23:57:32.348Z,94808.21
